sensor_id;sensor_type;location;lat;lon;timestamp;P1;durP1;ratioP1;P2;durP2;ratioP2
7051;SDS011;3567;52.444;13.556;2022-10-28T00:01:03;8.30;;;6.93;;
7051;SDS011;3567;52.444;13.556;2022-10-28T00:03:36;10.18;;;6.30;;
7051;SDS011;3567;52.444;13.556;2022-10-28T00:06:04;9.00;;;6.97;;
7051;SDS011;3567;52.444;13.556;2022-10-28T00:08:32;13.45;;;7.82;;
7051;SDS011;3567;52.444;13.556;2022-10-28T00:11:05;11.05;;;6.93;;
7051;SDS011;3567;52.444;13.556;2022-10-28T00:13:32;8.10;;;6.93;;
7051;SDS011;3567;52.444;13.556;2022-10-28T00:16:02;9.40;;;7.13;;
7051;SDS011;3567;52.444;13.556;2022-10-28T00:18:37;8.35;;;7.38;;
7051;SDS011;3567;52.444;13.556;2022-10-28T00:21:09;12.07;;;8.35;;
7051;SDS011;3567;52.444;13.556;2022-10-28T00:23:39;6.95;;;6.18;;
7051;SDS011;3567;52.444;13.556;2022-10-28T00:26:06;7.55;;;6.82;;
7051;SDS011;3567;52.444;13.556;2022-10-28T00:28:47;7.28;;;6.40;;
7051;SDS011;3567;52.444;13.556;2022-10-28T00:31:15;7.43;;;6.63;;
7051;SDS011;3567;52.444;13.556;2022-10-28T00:33:41;7.38;;;6.07;;
7051;SDS011;3567;52.444;13.556;2022-10-28T00:38:58;13.65;;;6.57;;
7051;SDS011;3567;52.444;13.556;2022-10-28T00:41:29;9.63;;;7.30;;
7051;SDS011;3567;52.444;13.556;2022-10-28T00:43:58;9.63;;;7.65;;
7051;SDS011;3567;52.444;13.556;2022-10-28T00:49:16;8.18;;;6.90;;
7051;SDS011;3567;52.444;13.556;2022-10-28T00:51:52;9.27;;;7.35;;
7051;SDS011;3567;52.444;13.556;2022-10-28T00:54:23;8.13;;;6.90;;
7051;SDS011;3567;52.444;13.556;2022-10-28T00:56:50;6.50;;;5.90;;
7051;SDS011;3567;52.444;13.556;2022-10-28T00:59:30;9.15;;;6.70;;
7051;SDS011;3567;52.444;13.556;2022-10-28T01:01:58;8.40;;;7.32;;
7051;SDS011;3567;52.444;13.556;2022-10-28T01:04:24;8.23;;;7.45;;
7051;SDS011;3567;52.444;13.556;2022-10-28T01:06:50;8.43;;;7.47;;
7051;SDS011;3567;52.444;13.556;2022-10-28T01:09:16;8.93;;;7.80;;
7051;SDS011;3567;52.444;13.556;2022-10-28T01:30:11;8.07;;;7.13;;
7051;SDS011;3567;52.444;13.556;2022-10-28T01:32:50;9.25;;;8.35;;
7051;SDS011;3567;52.444;13.556;2022-10-28T01:44:19;8.90;;;7.97;;
7051;SDS011;3567;52.444;13.556;2022-10-28T01:46:21;6.88;;;6.22;;
7051;SDS011;3567;52.444;13.556;2022-10-28T01:48:53;7.68;;;6.82;;
7051;SDS011;3567;52.444;13.556;2022-10-28T01:51:23;7.15;;;6.45;;
7051;SDS011;3567;52.444;13.556;2022-10-28T01:53:54;7.45;;;6.75;;
7051;SDS011;3567;52.444;13.556;2022-10-28T01:56:26;8.05;;;7.25;;
7051;SDS011;3567;52.444;13.556;2022-10-28T01:58:55;8.98;;;7.03;;
7051;SDS011;3567;52.444;13.556;2022-10-28T02:01:24;8.15;;;6.45;;
7051;SDS011;3567;52.444;13.556;2022-10-28T02:03:52;7.53;;;6.88;;
7051;SDS011;3567;52.444;13.556;2022-10-28T02:06:19;8.15;;;6.78;;
7051;SDS011;3567;52.444;13.556;2022-10-28T02:16:45;12.13;;;8.70;;
7051;SDS011;3567;52.444;13.556;2022-10-28T02:27:24;9.07;;;7.20;;
7051;SDS011;3567;52.444;13.556;2022-10-28T02:32:43;11.73;;;7.90;;
7051;SDS011;3567;52.444;13.556;2022-10-28T02:35:16;11.00;;;9.10;;
7051;SDS011;3567;52.444;13.556;2022-10-28T02:37:46;11.32;;;9.65;;
7051;SDS011;3567;52.444;13.556;2022-10-28T02:40:18;10.35;;;9.00;;
7051;SDS011;3567;52.444;13.556;2022-10-28T02:42:48;9.02;;;7.63;;
7051;SDS011;3567;52.444;13.556;2022-10-28T02:45:17;14.77;;;7.70;;
7051;SDS011;3567;52.444;13.556;2022-10-28T02:47:48;11.60;;;6.95;;
7051;SDS011;3567;52.444;13.556;2022-10-28T02:50:19;10.32;;;8.15;;
7051;SDS011;3567;52.444;13.556;2022-10-28T02:52:50;8.93;;;8.13;;
7051;SDS011;3567;52.444;13.556;2022-10-28T02:55:20;7.25;;;6.53;;
7051;SDS011;3567;52.444;13.556;2022-10-28T02:57:49;7.60;;;6.68;;
7051;SDS011;3567;52.444;13.556;2022-10-28T03:00:16;14.90;;;8.40;;
7051;SDS011;3567;52.444;13.556;2022-10-28T03:02:44;10.00;;;6.72;;
7051;SDS011;3567;52.444;13.556;2022-10-28T03:05:09;7.18;;;6.57;;
7051;SDS011;3567;52.444;13.556;2022-10-28T03:07:35;12.63;;;7.47;;
7051;SDS011;3567;52.444;13.556;2022-10-28T03:10:00;10.20;;;7.78;;
7051;SDS011;3567;52.444;13.556;2022-10-28T03:12:26;15.20;;;8.10;;
7051;SDS011;3567;52.444;13.556;2022-10-28T03:14:51;10.57;;;7.55;;
7051;SDS011;3567;52.444;13.556;2022-10-28T03:17:16;12.55;;;7.95;;
7051;SDS011;3567;52.444;13.556;2022-10-28T03:19:42;8.65;;;7.13;;
7051;SDS011;3567;52.444;13.556;2022-10-28T03:22:07;11.70;;;8.48;;
7051;SDS011;3567;52.444;13.556;2022-10-28T03:24:33;10.27;;;7.70;;
7051;SDS011;3567;52.444;13.556;2022-10-28T03:26:58;13.27;;;8.38;;
7051;SDS011;3567;52.444;13.556;2022-10-28T03:29:24;7.78;;;6.97;;
7051;SDS011;3567;52.444;13.556;2022-10-28T03:31:49;9.00;;;8.02;;
7051;SDS011;3567;52.444;13.556;2022-10-28T03:34:14;11.43;;;7.65;;
7051;SDS011;3567;52.444;13.556;2022-10-28T03:36:40;15.25;;;8.18;;
7051;SDS011;3567;52.444;13.556;2022-10-28T03:39:05;11.65;;;7.93;;
7051;SDS011;3567;52.444;13.556;2022-10-28T03:41:31;8.52;;;7.50;;
7051;SDS011;3567;52.444;13.556;2022-10-28T03:43:56;8.40;;;7.60;;
7051;SDS011;3567;52.444;13.556;2022-10-28T03:46:22;9.02;;;7.05;;
7051;SDS011;3567;52.444;13.556;2022-10-28T03:48:47;9.00;;;8.20;;
7051;SDS011;3567;52.444;13.556;2022-10-28T03:51:12;9.07;;;7.85;;
7051;SDS011;3567;52.444;13.556;2022-10-28T03:53:38;10.73;;;8.52;;
7051;SDS011;3567;52.444;13.556;2022-10-28T03:56:03;13.30;;;8.07;;
7051;SDS011;3567;52.444;13.556;2022-10-28T03:58:29;10.18;;;7.38;;
7051;SDS011;3567;52.444;13.556;2022-10-28T04:00:55;11.48;;;8.05;;
7051;SDS011;3567;52.444;13.556;2022-10-28T04:03:21;9.10;;;8.27;;
7051;SDS011;3567;52.444;13.556;2022-10-28T04:05:47;9.80;;;8.65;;
7051;SDS011;3567;52.444;13.556;2022-10-28T04:08:13;10.85;;;8.57;;
7051;SDS011;3567;52.444;13.556;2022-10-28T04:10:40;12.38;;;9.57;;
7051;SDS011;3567;52.444;13.556;2022-10-28T04:13:06;9.10;;;8.30;;
7051;SDS011;3567;52.444;13.556;2022-10-28T04:15:31;11.45;;;9.13;;
7051;SDS011;3567;52.444;13.556;2022-10-28T04:17:57;9.43;;;8.52;;
7051;SDS011;3567;52.444;13.556;2022-10-28T04:20:23;11.48;;;8.40;;
7051;SDS011;3567;52.444;13.556;2022-10-28T04:22:48;9.88;;;7.72;;
7051;SDS011;3567;52.444;13.556;2022-10-28T04:25:14;11.88;;;10.18;;
7051;SDS011;3567;52.444;13.556;2022-10-28T04:27:39;13.82;;;8.98;;
7051;SDS011;3567;52.444;13.556;2022-10-28T04:30:05;10.57;;;8.50;;
7051;SDS011;3567;52.444;13.556;2022-10-28T04:32:31;13.52;;;10.07;;
7051;SDS011;3567;52.444;13.556;2022-10-28T04:34:57;19.23;;;10.60;;
7051;SDS011;3567;52.444;13.556;2022-10-28T04:37:22;10.20;;;9.13;;
7051;SDS011;3567;52.444;13.556;2022-10-28T04:39:48;9.52;;;8.50;;
7051;SDS011;3567;52.444;13.556;2022-10-28T04:42:13;13.93;;;10.30;;
7051;SDS011;3567;52.444;13.556;2022-10-28T04:44:40;12.05;;;10.85;;
7051;SDS011;3567;52.444;13.556;2022-10-28T04:47:06;13.43;;;11.20;;
7051;SDS011;3567;52.444;13.556;2022-10-28T04:49:31;12.98;;;9.43;;
7051;SDS011;3567;52.444;13.556;2022-10-28T04:51:56;12.45;;;10.45;;
7051;SDS011;3567;52.444;13.556;2022-10-28T04:54:22;11.98;;;10.52;;
7051;SDS011;3567;52.444;13.556;2022-10-28T04:56:49;11.35;;;10.25;;
7051;SDS011;3567;52.444;13.556;2022-10-28T04:59:14;11.93;;;9.70;;
7051;SDS011;3567;52.444;13.556;2022-10-28T05:01:40;9.98;;;8.98;;
7051;SDS011;3567;52.444;13.556;2022-10-28T05:04:05;10.57;;;9.32;;
7051;SDS011;3567;52.444;13.556;2022-10-28T05:06:31;12.00;;;9.65;;
7051;SDS011;3567;52.444;13.556;2022-10-28T05:08:56;12.25;;;10.43;;
7051;SDS011;3567;52.444;13.556;2022-10-28T05:11:21;13.75;;;11.48;;
7051;SDS011;3567;52.444;13.556;2022-10-28T05:13:47;14.02;;;10.13;;
7051;SDS011;3567;52.444;13.556;2022-10-28T05:16:12;15.95;;;13.05;;
7051;SDS011;3567;52.444;13.556;2022-10-28T05:18:38;14.80;;;12.25;;
7051;SDS011;3567;52.444;13.556;2022-10-28T05:21:03;17.98;;;12.65;;
7051;SDS011;3567;52.444;13.556;2022-10-28T05:23:29;15.73;;;11.93;;
7051;SDS011;3567;52.444;13.556;2022-10-28T05:25:54;15.63;;;11.80;;
7051;SDS011;3567;52.444;13.556;2022-10-28T05:28:19;16.63;;;11.40;;
7051;SDS011;3567;52.444;13.556;2022-10-28T05:30:46;17.67;;;14.05;;
7051;SDS011;3567;52.444;13.556;2022-10-28T05:33:11;16.67;;;13.23;;
7051;SDS011;3567;52.444;13.556;2022-10-28T05:35:37;15.30;;;13.10;;
7051;SDS011;3567;52.444;13.556;2022-10-28T05:38:03;14.45;;;11.45;;
7051;SDS011;3567;52.444;13.556;2022-10-28T05:40:29;13.05;;;10.98;;
7051;SDS011;3567;52.444;13.556;2022-10-28T05:42:57;15.45;;;11.77;;
7051;SDS011;3567;52.444;13.556;2022-10-28T05:45:23;22.90;;;10.82;;
7051;SDS011;3567;52.444;13.556;2022-10-28T05:47:48;28.02;;;17.08;;
7051;SDS011;3567;52.444;13.556;2022-10-28T05:50:15;20.63;;;15.55;;
7051;SDS011;3567;52.444;13.556;2022-10-28T05:52:49;14.02;;;11.95;;
7051;SDS011;3567;52.444;13.556;2022-10-28T05:55:16;20.98;;;11.82;;
7051;SDS011;3567;52.444;13.556;2022-10-28T05:57:44;13.50;;;11.35;;
7051;SDS011;3567;52.444;13.556;2022-10-28T06:00:17;14.77;;;10.02;;
7051;SDS011;3567;52.444;13.556;2022-10-28T06:02:44;14.95;;;10.38;;
7051;SDS011;3567;52.444;13.556;2022-10-28T06:05:09;15.30;;;12.00;;
7051;SDS011;3567;52.444;13.556;2022-10-28T06:07:36;24.35;;;11.65;;
7051;SDS011;3567;52.444;13.556;2022-10-28T06:10:02;20.42;;;11.68;;
7051;SDS011;3567;52.444;13.556;2022-10-28T06:12:29;15.63;;;10.43;;
7051;SDS011;3567;52.444;13.556;2022-10-28T06:14:54;18.45;;;11.50;;
7051;SDS011;3567;52.444;13.556;2022-10-28T06:17:19;19.50;;;10.07;;
7051;SDS011;3567;52.444;13.556;2022-10-28T06:19:45;18.27;;;11.65;;
7051;SDS011;3567;52.444;13.556;2022-10-28T06:22:11;26.40;;;11.85;;
7051;SDS011;3567;52.444;13.556;2022-10-28T06:24:36;12.85;;;10.43;;
7051;SDS011;3567;52.444;13.556;2022-10-28T06:27:02;26.58;;;12.30;;
7051;SDS011;3567;52.444;13.556;2022-10-28T06:29:27;20.67;;;12.27;;
7051;SDS011;3567;52.444;13.556;2022-10-28T06:31:53;24.73;;;12.60;;
7051;SDS011;3567;52.444;13.556;2022-10-28T06:34:18;21.88;;;11.65;;
7051;SDS011;3567;52.444;13.556;2022-10-28T06:36:43;15.65;;;11.63;;
7051;SDS011;3567;52.444;13.556;2022-10-28T06:39:09;14.90;;;12.23;;
7051;SDS011;3567;52.444;13.556;2022-10-28T06:41:34;17.48;;;13.10;;
7051;SDS011;3567;52.444;13.556;2022-10-28T06:43:59;18.95;;;11.63;;
7051;SDS011;3567;52.444;13.556;2022-10-28T06:46:25;20.90;;;11.75;;
7051;SDS011;3567;52.444;13.556;2022-10-28T06:48:52;13.63;;;11.00;;
7051;SDS011;3567;52.444;13.556;2022-10-28T06:51:18;25.90;;;14.07;;
7051;SDS011;3567;52.444;13.556;2022-10-28T06:53:47;23.20;;;13.98;;
7051;SDS011;3567;52.444;13.556;2022-10-28T06:56:13;30.02;;;15.07;;
7051;SDS011;3567;52.444;13.556;2022-10-28T06:58:38;19.92;;;13.68;;
7051;SDS011;3567;52.444;13.556;2022-10-28T07:01:04;17.52;;;12.77;;
7051;SDS011;3567;52.444;13.556;2022-10-28T07:03:30;21.75;;;12.52;;
7051;SDS011;3567;52.444;13.556;2022-10-28T07:05:57;24.40;;;12.48;;
7051;SDS011;3567;52.444;13.556;2022-10-28T07:08:23;17.17;;;12.70;;
7051;SDS011;3567;52.444;13.556;2022-10-28T07:10:55;22.35;;;12.43;;
7051;SDS011;3567;52.444;13.556;2022-10-28T07:13:25;20.17;;;11.68;;
7051;SDS011;3567;52.444;13.556;2022-10-28T07:15:54;16.05;;;11.75;;
7051;SDS011;3567;52.444;13.556;2022-10-28T07:18:22;21.60;;;13.25;;
7051;SDS011;3567;52.444;13.556;2022-10-28T07:20:49;17.13;;;11.35;;
7051;SDS011;3567;52.444;13.556;2022-10-28T07:23:14;14.30;;;11.40;;
7051;SDS011;3567;52.444;13.556;2022-10-28T07:25:40;20.98;;;12.38;;
7051;SDS011;3567;52.444;13.556;2022-10-28T07:28:06;21.55;;;13.55;;
7051;SDS011;3567;52.444;13.556;2022-10-28T07:30:33;19.08;;;12.50;;
7051;SDS011;3567;52.444;13.556;2022-10-28T07:32:58;22.05;;;11.30;;
7051;SDS011;3567;52.444;13.556;2022-10-28T07:35:28;21.52;;;10.05;;
7051;SDS011;3567;52.444;13.556;2022-10-28T07:37:55;19.25;;;10.45;;
7051;SDS011;3567;52.444;13.556;2022-10-28T07:40:20;10.02;;;7.65;;
7051;SDS011;3567;52.444;13.556;2022-10-28T07:42:46;16.27;;;7.78;;
7051;SDS011;3567;52.444;13.556;2022-10-28T07:45:12;11.98;;;7.55;;
7051;SDS011;3567;52.444;13.556;2022-10-28T07:47:37;18.17;;;7.88;;
7051;SDS011;3567;52.444;13.556;2022-10-28T07:50:03;11.57;;;7.45;;
7051;SDS011;3567;52.444;13.556;2022-10-28T07:52:30;16.20;;;6.28;;
7051;SDS011;3567;52.444;13.556;2022-10-28T07:54:57;10.90;;;6.28;;
7051;SDS011;3567;52.444;13.556;2022-10-28T07:57:22;7.95;;;5.95;;
7051;SDS011;3567;52.444;13.556;2022-10-28T07:59:48;9.35;;;5.10;;
7051;SDS011;3567;52.444;13.556;2022-10-28T08:02:14;12.05;;;5.63;;
7051;SDS011;3567;52.444;13.556;2022-10-28T08:04:42;12.02;;;7.28;;
7051;SDS011;3567;52.444;13.556;2022-10-28T08:07:07;7.63;;;4.55;;
7051;SDS011;3567;52.444;13.556;2022-10-28T08:09:33;7.38;;;4.28;;
7051;SDS011;3567;52.444;13.556;2022-10-28T08:11:58;4.07;;;3.67;;
7051;SDS011;3567;52.444;13.556;2022-10-28T08:14:23;8.15;;;3.92;;
7051;SDS011;3567;52.444;13.556;2022-10-28T08:16:49;8.30;;;3.83;;
7051;SDS011;3567;52.444;13.556;2022-10-28T08:19:14;6.05;;;3.72;;
7051;SDS011;3567;52.444;13.556;2022-10-28T08:21:40;6.13;;;3.80;;
7051;SDS011;3567;52.444;13.556;2022-10-28T08:24:05;7.93;;;4.35;;
7051;SDS011;3567;52.444;13.556;2022-10-28T08:26:31;7.10;;;3.78;;
7051;SDS011;3567;52.444;13.556;2022-10-28T08:28:56;6.65;;;3.90;;
7051;SDS011;3567;52.444;13.556;2022-10-28T08:31:22;5.43;;;3.35;;
7051;SDS011;3567;52.444;13.556;2022-10-28T08:33:47;6.05;;;3.97;;
7051;SDS011;3567;52.444;13.556;2022-10-28T08:36:14;6.88;;;4.15;;
7051;SDS011;3567;52.444;13.556;2022-10-28T08:38:44;9.02;;;3.70;;
7051;SDS011;3567;52.444;13.556;2022-10-28T08:49:09;3.90;;;3.35;;
7051;SDS011;3567;52.444;13.556;2022-10-28T08:51:46;6.70;;;3.33;;
7051;SDS011;3567;52.444;13.556;2022-10-28T08:54:21;5.22;;;3.55;;
7051;SDS011;3567;52.444;13.556;2022-10-28T08:56:51;6.65;;;3.20;;
7051;SDS011;3567;52.444;13.556;2022-10-28T08:59:39;5.40;;;3.20;;
7051;SDS011;3567;52.444;13.556;2022-10-28T09:04:46;4.25;;;3.03;;
7051;SDS011;3567;52.444;13.556;2022-10-28T09:07:19;3.60;;;2.85;;
7051;SDS011;3567;52.444;13.556;2022-10-28T09:09:46;8.32;;;2.97;;
7051;SDS011;3567;52.444;13.556;2022-10-28T09:18:18;4.30;;;3.35;;
7051;SDS011;3567;52.444;13.556;2022-10-28T09:20:51;8.43;;;3.70;;
7051;SDS011;3567;52.444;13.556;2022-10-28T09:23:30;6.07;;;3.13;;
7051;SDS011;3567;52.444;13.556;2022-10-28T09:26:30;5.55;;;3.53;;
7051;SDS011;3567;52.444;13.556;2022-10-28T09:31:48;5.25;;;3.17;;
7051;SDS011;3567;52.444;13.556;2022-10-28T09:37:07;7.90;;;3.05;;
7051;SDS011;3567;52.444;13.556;2022-10-28T09:39:38;6.97;;;3.13;;
7051;SDS011;3567;52.444;13.556;2022-10-28T09:42:07;4.10;;;2.75;;
7051;SDS011;3567;52.444;13.556;2022-10-28T09:44:50;7.25;;;3.08;;
7051;SDS011;3567;52.444;13.556;2022-10-28T09:47:28;6.05;;;2.85;;
7051;SDS011;3567;52.444;13.556;2022-10-28T09:50:00;7.38;;;2.50;;
7051;SDS011;3567;52.444;13.556;2022-10-28T09:52:36;7.60;;;3.33;;
7051;SDS011;3567;52.444;13.556;2022-10-28T09:55:19;8.18;;;3.03;;
7051;SDS011;3567;52.444;13.556;2022-10-28T09:57:45;7.85;;;2.50;;
7051;SDS011;3567;52.444;13.556;2022-10-28T10:00:11;7.30;;;3.10;;
7051;SDS011;3567;52.444;13.556;2022-10-28T10:02:38;7.43;;;2.35;;
7051;SDS011;3567;52.444;13.556;2022-10-28T10:05:16;3.17;;;2.60;;
7051;SDS011;3567;52.444;13.556;2022-10-28T10:10:33;6.28;;;3.08;;
7051;SDS011;3567;52.444;13.556;2022-10-28T10:13:08;5.43;;;2.85;;
7051;SDS011;3567;52.444;13.556;2022-10-28T10:15:37;6.65;;;2.58;;
7051;SDS011;3567;52.444;13.556;2022-10-28T10:18:11;6.15;;;2.00;;
7051;SDS011;3567;52.444;13.556;2022-10-28T10:20:49;6.80;;;2.42;;
7051;SDS011;3567;52.444;13.556;2022-10-28T10:25:56;4.18;;;2.15;;
7051;SDS011;3567;52.444;13.556;2022-10-28T10:28:25;7.18;;;2.30;;
7051;SDS011;3567;52.444;13.556;2022-10-28T10:30:52;4.20;;;2.28;;
7051;SDS011;3567;52.444;13.556;2022-10-28T10:33:21;6.63;;;2.40;;
7051;SDS011;3567;52.444;13.556;2022-10-28T10:35:57;5.22;;;2.55;;
7051;SDS011;3567;52.444;13.556;2022-10-28T10:38:27;5.20;;;2.05;;
7051;SDS011;3567;52.444;13.556;2022-10-28T10:40:54;5.18;;;2.08;;
7051;SDS011;3567;52.444;13.556;2022-10-28T10:43:21;7.10;;;2.35;;
7051;SDS011;3567;52.444;13.556;2022-10-28T10:48:16;5.65;;;2.08;;
7051;SDS011;3567;52.444;13.556;2022-10-28T10:50:44;3.92;;;2.22;;
7051;SDS011;3567;52.444;13.556;2022-10-28T10:53:46;6.28;;;2.33;;
7051;SDS011;3567;52.444;13.556;2022-10-28T10:56:04;4.68;;;1.90;;
7051;SDS011;3567;52.444;13.556;2022-10-28T10:58:46;5.78;;;2.08;;
7051;SDS011;3567;52.444;13.556;2022-10-28T11:01:19;8.30;;;2.35;;
7051;SDS011;3567;52.444;13.556;2022-10-28T11:03:49;4.32;;;2.55;;
7051;SDS011;3567;52.444;13.556;2022-10-28T11:06:22;7.18;;;2.40;;
7051;SDS011;3567;52.444;13.556;2022-10-28T11:09:01;7.32;;;2.10;;
7051;SDS011;3567;52.444;13.556;2022-10-28T11:14:03;9.93;;;3.03;;
7051;SDS011;3567;52.444;13.556;2022-10-28T11:16:29;10.18;;;2.58;;
7051;SDS011;3567;52.444;13.556;2022-10-28T11:18:54;5.68;;;1.80;;
7051;SDS011;3567;52.444;13.556;2022-10-28T11:21:24;9.00;;;2.78;;
7051;SDS011;3567;52.444;13.556;2022-10-28T11:24:38;7.70;;;2.35;;
7051;SDS011;3567;52.444;13.556;2022-10-28T11:26:58;4.95;;;1.77;;
7051;SDS011;3567;52.444;13.556;2022-10-28T11:29:46;6.97;;;2.00;;
7051;SDS011;3567;52.444;13.556;2022-10-28T11:32:28;5.25;;;2.15;;
7051;SDS011;3567;52.444;13.556;2022-10-28T11:46:02;3.92;;;2.15;;
7051;SDS011;3567;52.444;13.556;2022-10-28T11:51:16;8.60;;;2.67;;
7051;SDS011;3567;52.444;13.556;2022-10-28T11:56:34;5.43;;;2.15;;
7051;SDS011;3567;52.444;13.556;2022-10-28T12:01:49;7.22;;;2.28;;
7051;SDS011;3567;52.444;13.556;2022-10-28T12:09:44;4.20;;;2.13;;
7051;SDS011;3567;52.444;13.556;2022-10-28T12:12:15;8.90;;;2.42;;
7051;SDS011;3567;52.444;13.556;2022-10-28T12:17:39;5.97;;;2.08;;
7051;SDS011;3567;52.444;13.556;2022-10-28T12:20:22;6.60;;;2.38;;
7051;SDS011;3567;52.444;13.556;2022-10-28T12:22:55;8.90;;;2.13;;
7051;SDS011;3567;52.444;13.556;2022-10-28T12:25:26;6.43;;;2.00;;
7051;SDS011;3567;52.444;13.556;2022-10-28T12:27:56;3.17;;;1.77;;
7051;SDS011;3567;52.444;13.556;2022-10-28T12:30:27;8.68;;;1.92;;
7051;SDS011;3567;52.444;13.556;2022-10-28T12:32:59;7.35;;;2.40;;
7051;SDS011;3567;52.444;13.556;2022-10-28T12:35:32;5.47;;;2.47;;
7051;SDS011;3567;52.444;13.556;2022-10-28T12:43:46;5.32;;;2.80;;
7051;SDS011;3567;52.444;13.556;2022-10-28T12:51:49;8.13;;;2.53;;
7051;SDS011;3567;52.444;13.556;2022-10-28T12:54:37;7.07;;;2.35;;
7051;SDS011;3567;52.444;13.556;2022-10-28T12:57:18;4.50;;;1.83;;
7051;SDS011;3567;52.444;13.556;2022-10-28T12:59:49;10.82;;;2.60;;
7051;SDS011;3567;52.444;13.556;2022-10-28T13:05:25;9.88;;;2.55;;
7051;SDS011;3567;52.444;13.556;2022-10-28T13:10:56;8.38;;;2.03;;
7051;SDS011;3567;52.444;13.556;2022-10-28T13:22:51;4.53;;;1.88;;
7051;SDS011;3567;52.444;13.556;2022-10-28T13:27:54;3.30;;;2.20;;
7051;SDS011;3567;52.444;13.556;2022-10-28T13:30:21;5.53;;;2.40;;
7051;SDS011;3567;52.444;13.556;2022-10-28T13:32:48;7.60;;;2.40;;
7051;SDS011;3567;52.444;13.556;2022-10-28T13:35:27;6.25;;;2.58;;
7051;SDS011;3567;52.444;13.556;2022-10-28T13:37:54;7.20;;;2.92;;
7051;SDS011;3567;52.444;13.556;2022-10-28T13:42:59;4.38;;;2.10;;
7051;SDS011;3567;52.444;13.556;2022-10-28T13:51:39;5.32;;;2.05;;
7051;SDS011;3567;52.444;13.556;2022-10-28T13:58:49;6.53;;;2.42;;
7051;SDS011;3567;52.444;13.556;2022-10-28T14:04:04;4.65;;;2.42;;
7051;SDS011;3567;52.444;13.556;2022-10-28T14:06:42;5.28;;;2.85;;
7051;SDS011;3567;52.444;13.556;2022-10-28T14:09:17;10.38;;;2.42;;
7051;SDS011;3567;52.444;13.556;2022-10-28T14:12:01;3.58;;;2.05;;
7051;SDS011;3567;52.444;13.556;2022-10-28T14:14:29;6.05;;;2.22;;
7051;SDS011;3567;52.444;13.556;2022-10-28T14:16:55;3.65;;;1.95;;
7051;SDS011;3567;52.444;13.556;2022-10-28T14:19:20;3.35;;;2.00;;
7051;SDS011;3567;52.444;13.556;2022-10-28T14:24:32;4.50;;;2.28;;
7051;SDS011;3567;52.444;13.556;2022-10-28T14:29:33;6.05;;;2.67;;
7051;SDS011;3567;52.444;13.556;2022-10-28T14:34:55;5.55;;;2.05;;
7051;SDS011;3567;52.444;13.556;2022-10-28T14:40:32;5.05;;;2.28;;
7051;SDS011;3567;52.444;13.556;2022-10-28T14:50:50;5.50;;;2.35;;
7051;SDS011;3567;52.444;13.556;2022-10-28T14:53:30;6.40;;;2.22;;
7051;SDS011;3567;52.444;13.556;2022-10-28T14:56:02;6.93;;;2.58;;
7051;SDS011;3567;52.444;13.556;2022-10-28T14:58:38;4.85;;;2.67;;
7051;SDS011;3567;52.444;13.556;2022-10-28T15:03:40;4.35;;;2.40;;
7051;SDS011;3567;52.444;13.556;2022-10-28T15:08:54;2.50;;;1.70;;
7051;SDS011;3567;52.444;13.556;2022-10-28T15:11:21;8.95;;;2.45;;
7051;SDS011;3567;52.444;13.556;2022-10-28T15:13:50;7.10;;;3.10;;
7051;SDS011;3567;52.444;13.556;2022-10-28T15:16:20;31.85;;;19.55;;
7051;SDS011;3567;52.444;13.556;2022-10-28T15:18:47;31.33;;;20.25;;
7051;SDS011;3567;52.444;13.556;2022-10-28T15:21:16;57.38;;;37.97;;
7051;SDS011;3567;52.444;13.556;2022-10-28T15:23:44;76.85;;;47.38;;
7051;SDS011;3567;52.444;13.556;2022-10-28T15:26:10;64.63;;;40.53;;
7051;SDS011;3567;52.444;13.556;2022-10-28T15:28:37;96.38;;;59.50;;
7051;SDS011;3567;52.444;13.556;2022-10-28T15:31:03;88.82;;;44.63;;
7051;SDS011;3567;52.444;13.556;2022-10-28T15:33:29;55.30;;;34.78;;
7051;SDS011;3567;52.444;13.556;2022-10-28T15:38:36;11.52;;;6.82;;
7051;SDS011;3567;52.444;13.556;2022-10-28T15:43:54;10.18;;;3.33;;
7051;SDS011;3567;52.444;13.556;2022-10-28T15:46:21;6.00;;;3.22;;
7051;SDS011;3567;52.444;13.556;2022-10-28T15:48:51;9.98;;;3.40;;
7051;SDS011;3567;52.444;13.556;2022-10-28T15:51:18;9.68;;;5.95;;
7051;SDS011;3567;52.444;13.556;2022-10-28T15:54:08;7.85;;;4.05;;
7051;SDS011;3567;52.444;13.556;2022-10-28T15:56:51;9.00;;;5.88;;
7051;SDS011;3567;52.444;13.556;2022-10-28T15:59:20;5.63;;;3.50;;
7051;SDS011;3567;52.444;13.556;2022-10-28T16:01:47;7.47;;;4.13;;
7051;SDS011;3567;52.444;13.556;2022-10-28T16:06:46;10.63;;;3.50;;
7051;SDS011;3567;52.444;13.556;2022-10-28T16:12:14;11.02;;;3.60;;
7051;SDS011;3567;52.444;13.556;2022-10-28T16:14:44;4.75;;;3.10;;
7051;SDS011;3567;52.444;13.556;2022-10-28T16:17:20;7.65;;;4.22;;
7051;SDS011;3567;52.444;13.556;2022-10-28T16:20:02;7.95;;;4.30;;
7051;SDS011;3567;52.444;13.556;2022-10-28T16:22:36;6.22;;;3.72;;
7051;SDS011;3567;52.444;13.556;2022-10-28T16:25:18;9.15;;;4.32;;
7051;SDS011;3567;52.444;13.556;2022-10-28T16:27:49;8.95;;;3.78;;
7051;SDS011;3567;52.444;13.556;2022-10-28T16:30:15;7.20;;;3.70;;
7051;SDS011;3567;52.444;13.556;2022-10-28T16:35:18;14.15;;;4.20;;
7051;SDS011;3567;52.444;13.556;2022-10-28T16:37:46;8.18;;;3.33;;
7051;SDS011;3567;52.444;13.556;2022-10-28T16:40:13;7.55;;;3.67;;
7051;SDS011;3567;52.444;13.556;2022-10-28T16:42:39;7.13;;;4.30;;
7051;SDS011;3567;52.444;13.556;2022-10-28T16:45:11;9.30;;;4.25;;
7051;SDS011;3567;52.444;13.556;2022-10-28T16:47:38;5.78;;;3.88;;
7051;SDS011;3567;52.444;13.556;2022-10-28T16:50:04;13.85;;;4.00;;
7051;SDS011;3567;52.444;13.556;2022-10-28T16:52:29;9.68;;;4.03;;
7051;SDS011;3567;52.444;13.556;2022-10-28T16:54:56;22.98;;;14.23;;
7051;SDS011;3567;52.444;13.556;2022-10-28T16:57:22;8.18;;;4.97;;
7051;SDS011;3567;52.444;13.556;2022-10-28T16:59:49;8.93;;;4.22;;
7051;SDS011;3567;52.444;13.556;2022-10-28T17:02:25;12.82;;;5.45;;
7051;SDS011;3567;52.444;13.556;2022-10-28T17:04:53;9.05;;;3.67;;
7051;SDS011;3567;52.444;13.556;2022-10-28T17:07:19;7.60;;;3.90;;
7051;SDS011;3567;52.444;13.556;2022-10-28T17:09:45;10.00;;;5.15;;
7051;SDS011;3567;52.444;13.556;2022-10-28T17:12:14;11.70;;;4.85;;
7051;SDS011;3567;52.444;13.556;2022-10-28T17:14:41;11.68;;;4.45;;
7051;SDS011;3567;52.444;13.556;2022-10-28T17:17:07;7.15;;;4.35;;
7051;SDS011;3567;52.444;13.556;2022-10-28T17:19:34;8.15;;;3.83;;
7051;SDS011;3567;52.444;13.556;2022-10-28T17:22:00;7.82;;;3.95;;
7051;SDS011;3567;52.444;13.556;2022-10-28T17:24:25;4.70;;;3.03;;
7051;SDS011;3567;52.444;13.556;2022-10-28T17:26:50;11.68;;;4.75;;
7051;SDS011;3567;52.444;13.556;2022-10-28T17:29:17;9.52;;;4.40;;
7051;SDS011;3567;52.444;13.556;2022-10-28T17:31:42;7.97;;;4.00;;
7051;SDS011;3567;52.444;13.556;2022-10-28T17:34:08;6.65;;;4.53;;
7051;SDS011;3567;52.444;13.556;2022-10-28T17:36:34;4.95;;;4.10;;
7051;SDS011;3567;52.444;13.556;2022-10-28T17:38:59;6.50;;;4.43;;
7051;SDS011;3567;52.444;13.556;2022-10-28T17:41:25;12.43;;;5.22;;
7051;SDS011;3567;52.444;13.556;2022-10-28T17:43:53;7.20;;;5.28;;
7051;SDS011;3567;52.444;13.556;2022-10-28T17:46:19;14.07;;;4.78;;
7051;SDS011;3567;52.444;13.556;2022-10-28T17:48:45;7.82;;;4.88;;
7051;SDS011;3567;52.444;13.556;2022-10-28T17:51:10;5.55;;;5.00;;
7051;SDS011;3567;52.444;13.556;2022-10-28T17:53:36;8.15;;;4.85;;
7051;SDS011;3567;52.444;13.556;2022-10-28T17:56:02;11.95;;;4.55;;
7051;SDS011;3567;52.444;13.556;2022-10-28T17:58:29;8.93;;;4.75;;
7051;SDS011;3567;52.444;13.556;2022-10-28T18:00:57;11.88;;;4.47;;
7051;SDS011;3567;52.444;13.556;2022-10-28T18:03:24;6.97;;;4.40;;
7051;SDS011;3567;52.444;13.556;2022-10-28T18:05:50;12.65;;;4.97;;
7051;SDS011;3567;52.444;13.556;2022-10-28T18:08:16;11.45;;;5.20;;
7051;SDS011;3567;52.444;13.556;2022-10-28T18:10:53;6.55;;;5.03;;
7051;SDS011;3567;52.444;13.556;2022-10-28T18:13:27;9.13;;;5.10;;
7051;SDS011;3567;52.444;13.556;2022-10-28T18:15:54;13.85;;;5.32;;
7051;SDS011;3567;52.444;13.556;2022-10-28T18:18:20;7.35;;;4.70;;